sensor_id;sensor_type;location;lat;lon;timestamp;P1;durP1;ratioP1;P2;durP2;ratioP2
24637;SDS011;12773;50.162;8.548;2023-11-21T00:00:44;13.95;;;4.70;;
24637;SDS011;12773;50.162;8.548;2023-11-21T00:03:31;12.37;;;5.10;;
24637;SDS011;12773;50.162;8.548;2023-11-21T00:06:19;14.10;;;4.62;;
24637;SDS011;12773;50.162;8.548;2023-11-21T00:09:06;10.35;;;4.47;;
24637;SDS011;12773;50.162;8.548;2023-11-21T00:11:54;11.30;;;4.60;;
24637;SDS011;12773;50.162;8.548;2023-11-21T00:14:42;12.43;;;4.03;;
24637;SDS011;12773;50.162;8.548;2023-11-21T00:17:30;16.52;;;4.80;;
24637;SDS011;12773;50.162;8.548;2023-11-21T00:20:17;15.93;;;4.20;;
24637;SDS011;12773;50.162;8.548;2023-11-21T00:23:05;17.07;;;4.95;;
24637;SDS011;12773;50.162;8.548;2023-11-21T00:25:53;13.55;;;4.65;;
24637;SDS011;12773;50.162;8.548;2023-11-21T00:28:40;13.32;;;4.75;;
24637;SDS011;12773;50.162;8.548;2023-11-21T00:31:27;15.70;;;4.97;;
24637;SDS011;12773;50.162;8.548;2023-11-21T00:34:16;12.90;;;4.30;;
24637;SDS011;12773;50.162;8.548;2023-11-21T00:37:04;11.60;;;4.37;;
24637;SDS011;12773;50.162;8.548;2023-11-21T00:39:51;13.60;;;4.65;;
24637;SDS011;12773;50.162;8.548;2023-11-21T00:42:38;16.25;;;5.78;;
24637;SDS011;12773;50.162;8.548;2023-11-21T00:45:26;11.70;;;4.75;;
24637;SDS011;12773;50.162;8.548;2023-11-21T00:48:14;15.78;;;6.10;;
24637;SDS011;12773;50.162;8.548;2023-11-21T00:51:01;21.97;;;6.15;;
24637;SDS011;12773;50.162;8.548;2023-11-21T00:53:49;18.40;;;6.28;;
24637;SDS011;12773;50.162;8.548;2023-11-21T00:56:37;13.85;;;5.62;;
24637;SDS011;12773;50.162;8.548;2023-11-21T00:59:25;18.23;;;5.80;;
24637;SDS011;12773;50.162;8.548;2023-11-21T01:02:13;12.18;;;4.87;;
24637;SDS011;12773;50.162;8.548;2023-11-21T01:05:01;11.97;;;5.30;;
24637;SDS011;12773;50.162;8.548;2023-11-21T01:07:50;17.27;;;6.37;;
24637;SDS011;12773;50.162;8.548;2023-11-21T01:10:37;13.70;;;5.80;;
24637;SDS011;12773;50.162;8.548;2023-11-21T01:13:25;13.13;;;5.50;;
24637;SDS011;12773;50.162;8.548;2023-11-21T01:16:13;16.60;;;5.60;;
24637;SDS011;12773;50.162;8.548;2023-11-21T01:19:00;14.90;;;5.80;;
24637;SDS011;12773;50.162;8.548;2023-11-21T01:21:48;12.33;;;5.37;;
24637;SDS011;12773;50.162;8.548;2023-11-21T01:24:35;14.23;;;5.50;;
24637;SDS011;12773;50.162;8.548;2023-11-21T01:27:23;16.27;;;6.42;;
24637;SDS011;12773;50.162;8.548;2023-11-21T01:30:10;10.43;;;5.33;;
24637;SDS011;12773;50.162;8.548;2023-11-21T01:32:58;15.00;;;5.92;;
24637;SDS011;12773;50.162;8.548;2023-11-21T01:35:45;13.68;;;5.03;;
24637;SDS011;12773;50.162;8.548;2023-11-21T01:38:33;8.93;;;4.55;;
24637;SDS011;12773;50.162;8.548;2023-11-21T01:41:20;9.43;;;4.40;;
24637;SDS011;12773;50.162;8.548;2023-11-21T01:44:08;9.65;;;3.70;;
24637;SDS011;12773;50.162;8.548;2023-11-21T01:46:56;10.60;;;3.20;;
24637;SDS011;12773;50.162;8.548;2023-11-21T01:49:44;7.00;;;3.17;;
24637;SDS011;12773;50.162;8.548;2023-11-21T01:52:34;7.60;;;3.90;;
24637;SDS011;12773;50.162;8.548;2023-11-21T01:55:22;5.97;;;3.67;;
24637;SDS011;12773;50.162;8.548;2023-11-21T01:58:11;9.53;;;3.60;;
24637;SDS011;12773;50.162;8.548;2023-11-21T02:00:59;10.30;;;4.17;;
24637;SDS011;12773;50.162;8.548;2023-11-21T02:03:47;9.13;;;4.67;;
24637;SDS011;12773;50.162;8.548;2023-11-21T02:06:34;12.23;;;4.72;;
24637;SDS011;12773;50.162;8.548;2023-11-21T02:09:26;8.93;;;4.40;;
24637;SDS011;12773;50.162;8.548;2023-11-21T02:12:15;12.75;;;5.10;;
24637;SDS011;12773;50.162;8.548;2023-11-21T02:15:03;12.30;;;5.33;;
24637;SDS011;12773;50.162;8.548;2023-11-21T02:17:52;11.35;;;5.05;;
24637;SDS011;12773;50.162;8.548;2023-11-21T02:20:40;10.48;;;5.28;;
24637;SDS011;12773;50.162;8.548;2023-11-21T02:23:28;13.00;;;4.90;;
24637;SDS011;12773;50.162;8.548;2023-11-21T02:26:16;15.10;;;5.35;;
24637;SDS011;12773;50.162;8.548;2023-11-21T02:29:03;14.53;;;5.67;;
24637;SDS011;12773;50.162;8.548;2023-11-21T02:31:51;15.25;;;5.45;;
24637;SDS011;12773;50.162;8.548;2023-11-21T02:34:40;9.93;;;4.92;;
24637;SDS011;12773;50.162;8.548;2023-11-21T02:37:29;10.75;;;4.87;;
24637;SDS011;12773;50.162;8.548;2023-11-21T02:40:16;9.35;;;5.20;;
24637;SDS011;12773;50.162;8.548;2023-11-21T02:43:06;9.58;;;5.22;;
24637;SDS011;12773;50.162;8.548;2023-11-21T02:45:53;10.75;;;5.20;;
24637;SDS011;12773;50.162;8.548;2023-11-21T02:48:41;9.05;;;5.22;;
24637;SDS011;12773;50.162;8.548;2023-11-21T02:51:29;13.50;;;6.28;;
24637;SDS011;12773;50.162;8.548;2023-11-21T02:54:17;12.20;;;6.00;;
24637;SDS011;12773;50.162;8.548;2023-11-21T02:57:07;13.65;;;6.15;;
24637;SDS011;12773;50.162;8.548;2023-11-21T02:59:54;11.25;;;5.72;;
24637;SDS011;12773;50.162;8.548;2023-11-21T03:02:42;14.40;;;6.67;;
24637;SDS011;12773;50.162;8.548;2023-11-21T03:05:30;16.65;;;7.30;;
24637;SDS011;12773;50.162;8.548;2023-11-21T03:08:17;22.67;;;8.63;;
24637;SDS011;12773;50.162;8.548;2023-11-21T03:11:05;21.27;;;9.18;;
24637;SDS011;12773;50.162;8.548;2023-11-21T03:13:52;24.85;;;10.35;;
24637;SDS011;12773;50.162;8.548;2023-11-21T03:16:40;27.30;;;10.55;;
24637;SDS011;12773;50.162;8.548;2023-11-21T03:19:27;31.50;;;10.13;;
24637;SDS011;12773;50.162;8.548;2023-11-21T03:22:15;25.60;;;10.28;;
24637;SDS011;12773;50.162;8.548;2023-11-21T03:25:03;27.42;;;10.00;;
24637;SDS011;12773;50.162;8.548;2023-11-21T03:27:51;21.02;;;8.35;;
24637;SDS011;12773;50.162;8.548;2023-11-21T03:30:39;22.40;;;8.55;;
24637;SDS011;12773;50.162;8.548;2023-11-21T03:33:26;19.02;;;8.63;;
24637;SDS011;12773;50.162;8.548;2023-11-21T03:36:15;15.38;;;6.97;;
24637;SDS011;12773;50.162;8.548;2023-11-21T03:39:03;17.20;;;6.62;;
24637;SDS011;12773;50.162;8.548;2023-11-21T03:41:51;15.45;;;6.50;;
24637;SDS011;12773;50.162;8.548;2023-11-21T03:44:38;14.25;;;6.75;;
24637;SDS011;12773;50.162;8.548;2023-11-21T03:47:28;14.10;;;6.20;;
24637;SDS011;12773;50.162;8.548;2023-11-21T03:50:15;13.38;;;6.33;;
24637;SDS011;12773;50.162;8.548;2023-11-21T03:53:03;16.23;;;6.33;;
24637;SDS011;12773;50.162;8.548;2023-11-21T03:55:50;14.10;;;6.15;;
24637;SDS011;12773;50.162;8.548;2023-11-21T03:58:38;13.20;;;6.42;;
24637;SDS011;12773;50.162;8.548;2023-11-21T04:01:25;10.75;;;5.70;;
24637;SDS011;12773;50.162;8.548;2023-11-21T04:04:13;10.85;;;5.25;;
24637;SDS011;12773;50.162;8.548;2023-11-21T04:07:01;11.18;;;5.00;;
24637;SDS011;12773;50.162;8.548;2023-11-21T04:09:49;12.20;;;5.00;;
24637;SDS011;12773;50.162;8.548;2023-11-21T04:12:36;13.00;;;5.00;;
24637;SDS011;12773;50.162;8.548;2023-11-21T04:15:24;9.63;;;5.00;;
24637;SDS011;12773;50.162;8.548;2023-11-21T04:18:11;11.15;;;5.28;;
24637;SDS011;12773;50.162;8.548;2023-11-21T04:20:59;7.85;;;4.28;;
24637;SDS011;12773;50.162;8.548;2023-11-21T04:23:46;11.00;;;4.70;;
24637;SDS011;12773;50.162;8.548;2023-11-21T04:26:34;6.90;;;3.83;;
24637;SDS011;12773;50.162;8.548;2023-11-21T04:29:22;6.97;;;4.22;;
24637;SDS011;12773;50.162;8.548;2023-11-21T04:32:09;8.53;;;4.08;;
24637;SDS011;12773;50.162;8.548;2023-11-21T04:34:58;9.33;;;4.25;;
24637;SDS011;12773;50.162;8.548;2023-11-21T04:37:45;13.70;;;5.35;;
24637;SDS011;12773;50.162;8.548;2023-11-21T04:40:33;11.85;;;5.78;;
24637;SDS011;12773;50.162;8.548;2023-11-21T04:43:21;13.68;;;5.95;;
24637;SDS011;12773;50.162;8.548;2023-11-21T04:46:09;10.15;;;5.78;;
24637;SDS011;12773;50.162;8.548;2023-11-21T04:48:56;12.23;;;6.53;;
24637;SDS011;12773;50.162;8.548;2023-11-21T04:51:43;10.28;;;4.95;;
24637;SDS011;12773;50.162;8.548;2023-11-21T04:54:31;11.20;;;5.87;;
24637;SDS011;12773;50.162;8.548;2023-11-21T04:57:18;12.58;;;5.67;;
24637;SDS011;12773;50.162;8.548;2023-11-21T05:00:08;13.20;;;5.97;;
24637;SDS011;12773;50.162;8.548;2023-11-21T05:02:57;18.00;;;7.55;;
24637;SDS011;12773;50.162;8.548;2023-11-21T05:05:44;19.42;;;7.72;;
24637;SDS011;12773;50.162;8.548;2023-11-21T05:08:32;22.48;;;8.85;;
24637;SDS011;12773;50.162;8.548;2023-11-21T05:11:23;19.92;;;8.93;;
24637;SDS011;12773;50.162;8.548;2023-11-21T05:14:12;20.32;;;8.90;;
24637;SDS011;12773;50.162;8.548;2023-11-21T05:16:59;23.70;;;9.68;;
24637;SDS011;12773;50.162;8.548;2023-11-21T05:19:47;20.62;;;9.83;;
24637;SDS011;12773;50.162;8.548;2023-11-21T05:22:34;20.48;;;9.20;;
24637;SDS011;12773;50.162;8.548;2023-11-21T05:25:23;18.35;;;8.70;;
24637;SDS011;12773;50.162;8.548;2023-11-21T05:28:10;19.23;;;8.68;;
24637;SDS011;12773;50.162;8.548;2023-11-21T05:30:58;16.30;;;8.20;;
24637;SDS011;12773;50.162;8.548;2023-11-21T05:33:47;17.77;;;8.25;;
24637;SDS011;12773;50.162;8.548;2023-11-21T05:36:34;19.10;;;8.38;;
24637;SDS011;12773;50.162;8.548;2023-11-21T05:39:22;16.45;;;7.35;;
24637;SDS011;12773;50.162;8.548;2023-11-21T05:42:10;14.53;;;6.37;;
24637;SDS011;12773;50.162;8.548;2023-11-21T05:44:57;11.22;;;5.60;;
24637;SDS011;12773;50.162;8.548;2023-11-21T05:47:58;10.23;;;4.50;;
24637;SDS011;12773;50.162;8.548;2023-11-21T05:50:45;7.28;;;2.98;;
24637;SDS011;12773;50.162;8.548;2023-11-21T05:53:34;7.15;;;2.83;;
24637;SDS011;12773;50.162;8.548;2023-11-21T05:56:22;6.72;;;2.37;;
24637;SDS011;12773;50.162;8.548;2023-11-21T05:59:09;8.68;;;2.92;;
24637;SDS011;12773;50.162;8.548;2023-11-21T06:01:57;6.92;;;2.85;;
24637;SDS011;12773;50.162;8.548;2023-11-21T06:04:45;5.87;;;2.47;;
24637;SDS011;12773;50.162;8.548;2023-11-21T06:07:33;7.28;;;2.20;;
24637;SDS011;12773;50.162;8.548;2023-11-21T06:10:21;6.92;;;1.92;;
24637;SDS011;12773;50.162;8.548;2023-11-21T06:13:10;3.08;;;1.90;;
24637;SDS011;12773;50.162;8.548;2023-11-21T06:15:58;5.00;;;2.00;;
24637;SDS011;12773;50.162;8.548;2023-11-21T06:18:46;6.35;;;2.60;;
24637;SDS011;12773;50.162;8.548;2023-11-21T06:21:34;5.75;;;2.47;;
24637;SDS011;12773;50.162;8.548;2023-11-21T06:24:21;4.42;;;2.50;;
24637;SDS011;12773;50.162;8.548;2023-11-21T06:27:08;4.33;;;2.25;;
24637;SDS011;12773;50.162;8.548;2023-11-21T06:29:56;4.15;;;2.20;;
24637;SDS011;12773;50.162;8.548;2023-11-21T06:32:44;4.12;;;2.25;;
24637;SDS011;12773;50.162;8.548;2023-11-21T06:35:33;3.25;;;1.87;;
24637;SDS011;12773;50.162;8.548;2023-11-21T06:38:20;5.90;;;2.27;;
24637;SDS011;12773;50.162;8.548;2023-11-21T06:41:08;5.37;;;1.65;;
24637;SDS011;12773;50.162;8.548;2023-11-21T06:43:56;4.15;;;1.60;;
24637;SDS011;12773;50.162;8.548;2023-11-21T06:46:44;2.65;;;1.67;;
24637;SDS011;12773;50.162;8.548;2023-11-21T06:49:32;5.00;;;1.42;;
24637;SDS011;12773;50.162;8.548;2023-11-21T06:52:20;5.30;;;1.50;;
24637;SDS011;12773;50.162;8.548;2023-11-21T06:55:08;4.50;;;1.12;;
24637;SDS011;12773;50.162;8.548;2023-11-21T06:57:56;4.08;;;1.62;;
24637;SDS011;12773;50.162;8.548;2023-11-21T07:00:45;5.05;;;1.80;;
24637;SDS011;12773;50.162;8.548;2023-11-21T07:03:34;3.67;;;1.70;;
24637;SDS011;12773;50.162;8.548;2023-11-21T07:06:23;2.72;;;1.50;;
24637;SDS011;12773;50.162;8.548;2023-11-21T07:09:10;4.10;;;1.60;;
24637;SDS011;12773;50.162;8.548;2023-11-21T07:11:58;4.75;;;2.00;;
24637;SDS011;12773;50.162;8.548;2023-11-21T07:14:45;6.37;;;2.05;;
24637;SDS011;12773;50.162;8.548;2023-11-21T07:17:33;5.05;;;2.20;;
24637;SDS011;12773;50.162;8.548;2023-11-21T07:20:23;5.35;;;2.37;;
24637;SDS011;12773;50.162;8.548;2023-11-21T07:23:10;5.22;;;2.40;;
24637;SDS011;12773;50.162;8.548;2023-11-21T07:25:58;7.00;;;2.35;;
24637;SDS011;12773;50.162;8.548;2023-11-21T07:28:45;6.25;;;2.67;;
24637;SDS011;12773;50.162;8.548;2023-11-21T07:31:33;6.22;;;2.72;;
24637;SDS011;12773;50.162;8.548;2023-11-21T07:34:20;8.73;;;2.35;;
24637;SDS011;12773;50.162;8.548;2023-11-21T07:37:08;6.25;;;2.87;;
24637;SDS011;12773;50.162;8.548;2023-11-21T07:39:55;6.90;;;2.60;;
24637;SDS011;12773;50.162;8.548;2023-11-21T07:42:43;8.10;;;3.00;;
24637;SDS011;12773;50.162;8.548;2023-11-21T07:45:31;10.25;;;3.27;;
24637;SDS011;12773;50.162;8.548;2023-11-21T07:48:18;4.95;;;3.00;;
24637;SDS011;12773;50.162;8.548;2023-11-21T07:51:06;7.08;;;2.92;;
24637;SDS011;12773;50.162;8.548;2023-11-21T07:53:54;8.10;;;2.77;;
24637;SDS011;12773;50.162;8.548;2023-11-21T07:56:41;5.42;;;2.90;;
24637;SDS011;12773;50.162;8.548;2023-11-21T07:59:29;5.78;;;2.83;;
24637;SDS011;12773;50.162;8.548;2023-11-21T08:02:16;6.65;;;2.67;;
24637;SDS011;12773;50.162;8.548;2023-11-21T08:05:04;4.40;;;2.45;;
24637;SDS011;12773;50.162;8.548;2023-11-21T08:07:54;6.53;;;2.95;;
24637;SDS011;12773;50.162;8.548;2023-11-21T08:10:42;6.60;;;2.60;;
24637;SDS011;12773;50.162;8.548;2023-11-21T08:13:31;11.83;;;2.87;;
24637;SDS011;12773;50.162;8.548;2023-11-21T08:16:21;6.65;;;2.72;;
24637;SDS011;12773;50.162;8.548;2023-11-21T08:19:10;8.03;;;2.72;;
24637;SDS011;12773;50.162;8.548;2023-11-21T08:21:57;4.62;;;2.55;;
24637;SDS011;12773;50.162;8.548;2023-11-21T08:24:45;7.03;;;2.70;;
24637;SDS011;12773;50.162;8.548;2023-11-21T08:27:33;7.40;;;3.05;;
24637;SDS011;12773;50.162;8.548;2023-11-21T08:30:26;8.50;;;3.52;;
24637;SDS011;12773;50.162;8.548;2023-11-21T08:33:15;9.65;;;3.70;;
24637;SDS011;12773;50.162;8.548;2023-11-21T08:36:06;9.28;;;4.35;;
24637;SDS011;12773;50.162;8.548;2023-11-21T08:38:56;7.95;;;3.25;;
24637;SDS011;12773;50.162;8.548;2023-11-21T08:41:44;9.83;;;3.40;;
24637;SDS011;12773;50.162;8.548;2023-11-21T08:44:32;8.58;;;3.58;;
24637;SDS011;12773;50.162;8.548;2023-11-21T08:47:19;7.62;;;3.55;;
24637;SDS011;12773;50.162;8.548;2023-11-21T08:50:07;7.25;;;2.83;;
24637;SDS011;12773;50.162;8.548;2023-11-21T08:53:00;11.80;;;2.80;;
24637;SDS011;12773;50.162;8.548;2023-11-21T08:55:50;11.15;;;3.15;;
24637;SDS011;12773;50.162;8.548;2023-11-21T08:58:39;9.03;;;2.92;;
24637;SDS011;12773;50.162;8.548;2023-11-21T09:01:27;8.05;;;3.20;;
24637;SDS011;12773;50.162;8.548;2023-11-21T09:04:18;8.03;;;3.27;;
24637;SDS011;12773;50.162;8.548;2023-11-21T09:07:06;7.55;;;3.08;;
24637;SDS011;12773;50.162;8.548;2023-11-21T09:09:53;7.67;;;3.62;;
24637;SDS011;12773;50.162;8.548;2023-11-21T09:12:41;11.68;;;3.15;;
24637;SDS011;12773;50.162;8.548;2023-11-21T09:15:28;10.38;;;3.35;;
24637;SDS011;12773;50.162;8.548;2023-11-21T09:18:15;8.40;;;2.98;;
24637;SDS011;12773;50.162;8.548;2023-11-21T09:21:04;13.68;;;3.42;;
24637;SDS011;12773;50.162;8.548;2023-11-21T09:23:51;8.50;;;3.40;;
24637;SDS011;12773;50.162;8.548;2023-11-21T09:26:39;10.05;;;3.72;;
24637;SDS011;12773;50.162;8.548;2023-11-21T09:29:27;11.78;;;4.53;;
24637;SDS011;12773;50.162;8.548;2023-11-21T09:32:15;9.95;;;3.80;;
24637;SDS011;12773;50.162;8.548;2023-11-21T09:35:04;10.65;;;3.87;;
24637;SDS011;12773;50.162;8.548;2023-11-21T09:37:54;12.85;;;4.37;;
24637;SDS011;12773;50.162;8.548;2023-11-21T09:40:42;9.95;;;3.87;;
24637;SDS011;12773;50.162;8.548;2023-11-21T09:43:29;8.50;;;3.65;;
24637;SDS011;12773;50.162;8.548;2023-11-21T09:46:18;9.38;;;4.03;;
24637;SDS011;12773;50.162;8.548;2023-11-21T09:49:13;10.55;;;3.92;;
24637;SDS011;12773;50.162;8.548;2023-11-21T09:52:00;9.00;;;3.80;;
24637;SDS011;12773;50.162;8.548;2023-11-21T09:54:52;9.58;;;4.12;;
24637;SDS011;12773;50.162;8.548;2023-11-21T09:57:40;7.45;;;3.95;;
24637;SDS011;12773;50.162;8.548;2023-11-21T10:00:28;12.58;;;4.00;;
24637;SDS011;12773;50.162;8.548;2023-11-21T10:03:18;12.50;;;3.83;;
24637;SDS011;12773;50.162;8.548;2023-11-21T10:06:06;8.20;;;3.37;;
24637;SDS011;12773;50.162;8.548;2023-11-21T10:08:55;10.45;;;3.33;;
24637;SDS011;12773;50.162;8.548;2023-11-21T10:11:43;7.33;;;3.83;;
24637;SDS011;12773;50.162;8.548;2023-11-21T10:14:31;9.50;;;3.77;;
24637;SDS011;12773;50.162;8.548;2023-11-21T10:17:19;10.85;;;3.55;;
24637;SDS011;12773;50.162;8.548;2023-11-21T10:20:11;9.23;;;3.27;;
24637;SDS011;12773;50.162;8.548;2023-11-21T10:22:59;9.00;;;3.98;;
24637;SDS011;12773;50.162;8.548;2023-11-21T10:25:48;10.03;;;3.67;;
24637;SDS011;12773;50.162;8.548;2023-11-21T10:28:37;9.65;;;3.65;;
24637;SDS011;12773;50.162;8.548;2023-11-21T10:31:26;5.97;;;3.40;;
24637;SDS011;12773;50.162;8.548;2023-11-21T10:34:15;6.05;;;3.22;;
24637;SDS011;12773;50.162;8.548;2023-11-21T10:37:13;6.15;;;3.40;;
24637;SDS011;12773;50.162;8.548;2023-11-21T10:40:03;9.53;;;3.58;;
24637;SDS011;12773;50.162;8.548;2023-11-21T10:42:51;7.10;;;3.45;;
24637;SDS011;12773;50.162;8.548;2023-11-21T10:45:39;10.60;;;3.50;;
24637;SDS011;12773;50.162;8.548;2023-11-21T10:48:27;9.25;;;3.20;;
24637;SDS011;12773;50.162;8.548;2023-11-21T10:51:15;8.50;;;3.70;;
24637;SDS011;12773;50.162;8.548;2023-11-21T10:54:05;14.87;;;3.52;;
24637;SDS011;12773;50.162;8.548;2023-11-21T10:56:59;13.22;;;3.70;;
24637;SDS011;12773;50.162;8.548;2023-11-21T10:59:47;7.30;;;3.30;;
24637;SDS011;12773;50.162;8.548;2023-11-21T11:02:35;8.20;;;3.80;;
24637;SDS011;12773;50.162;8.548;2023-11-21T11:05:23;6.35;;;3.00;;
24637;SDS011;12773;50.162;8.548;2023-11-21T11:08:14;10.90;;;4.00;;
24637;SDS011;12773;50.162;8.548;2023-11-21T11:11:04;7.10;;;3.47;;
24637;SDS011;12773;50.162;8.548;2023-11-21T11:13:52;4.58;;;3.02;;
24637;SDS011;12773;50.162;8.548;2023-11-21T11:16:40;7.60;;;3.08;;
24637;SDS011;12773;50.162;8.548;2023-11-21T11:19:28;11.50;;;3.22;;
24637;SDS011;12773;50.162;8.548;2023-11-21T11:22:29;6.40;;;3.10;;
24637;SDS011;12773;50.162;8.548;2023-11-21T11:25:22;6.80;;;3.10;;
24637;SDS011;12773;50.162;8.548;2023-11-21T11:31:48;6.85;;;2.83;;
24637;SDS011;12773;50.162;8.548;2023-11-21T11:34:42;10.32;;;3.25;;
24637;SDS011;12773;50.162;8.548;2023-11-21T11:37:47;7.65;;;2.65;;
24637;SDS011;12773;50.162;8.548;2023-11-21T11:40:39;6.97;;;2.40;;
24637;SDS011;12773;50.162;8.548;2023-11-21T11:43:28;6.03;;;2.55;;
24637;SDS011;12773;50.162;8.548;2023-11-21T11:46:16;7.97;;;2.95;;
24637;SDS011;12773;50.162;8.548;2023-11-21T11:49:03;3.87;;;2.17;;
24637;SDS011;12773;50.162;8.548;2023-11-21T11:54:59;7.20;;;2.22;;
24637;SDS011;12773;50.162;8.548;2023-11-21T11:57:47;5.30;;;2.45;;
24637;SDS011;12773;50.162;8.548;2023-11-21T12:00:36;9.25;;;3.00;;
24637;SDS011;12773;50.162;8.548;2023-11-21T12:03:25;5.67;;;2.75;;
24637;SDS011;12773;50.162;8.548;2023-11-21T12:06:14;5.10;;;2.85;;
24637;SDS011;12773;50.162;8.548;2023-11-21T12:09:03;6.75;;;2.87;;
24637;SDS011;12773;50.162;8.548;2023-11-21T12:11:50;5.72;;;2.22;;
24637;SDS011;12773;50.162;8.548;2023-11-21T12:14:38;8.33;;;2.45;;
24637;SDS011;12773;50.162;8.548;2023-11-21T12:17:26;5.92;;;2.83;;
24637;SDS011;12773;50.162;8.548;2023-11-21T12:20:13;5.30;;;2.60;;
24637;SDS011;12773;50.162;8.548;2023-11-21T12:23:03;7.85;;;2.42;;
24637;SDS011;12773;50.162;8.548;2023-11-21T12:25:52;7.47;;;2.62;;
24637;SDS011;12773;50.162;8.548;2023-11-21T12:28:40;6.35;;;2.20;;
24637;SDS011;12773;50.162;8.548;2023-11-21T12:31:29;6.45;;;2.40;;
24637;SDS011;12773;50.162;8.548;2023-11-21T12:34:17;6.47;;;2.50;;
24637;SDS011;12773;50.162;8.548;2023-11-21T12:37:05;6.85;;;2.77;;
24637;SDS011;12773;50.162;8.548;2023-11-21T12:39:52;10.13;;;2.80;;
24637;SDS011;12773;50.162;8.548;2023-11-21T12:42:41;5.20;;;2.45;;
24637;SDS011;12773;50.162;8.548;2023-11-21T12:45:29;5.42;;;2.40;;
24637;SDS011;12773;50.162;8.548;2023-11-21T12:48:17;8.70;;;2.67;;
24637;SDS011;12773;50.162;8.548;2023-11-21T12:51:06;7.70;;;2.40;;
24637;SDS011;12773;50.162;8.548;2023-11-21T12:53:53;7.97;;;2.90;;
24637;SDS011;12773;50.162;8.548;2023-11-21T12:56:41;12.13;;;2.60;;
24637;SDS011;12773;50.162;8.548;2023-11-21T12:59:33;7.42;;;2.90;;
24637;SDS011;12773;50.162;8.548;2023-11-21T13:02:21;9.63;;;3.12;;
24637;SDS011;12773;50.162;8.548;2023-11-21T13:05:10;6.67;;;3.25;;
24637;SDS011;12773;50.162;8.548;2023-11-21T13:07:59;6.00;;;2.70;;
24637;SDS011;12773;50.162;8.548;2023-11-21T13:10:50;6.12;;;3.05;;
24637;SDS011;12773;50.162;8.548;2023-11-21T13:13:42;10.38;;;3.22;;
24637;SDS011;12773;50.162;8.548;2023-11-21T13:19:12;10.18;;;3.47;;
24637;SDS011;12773;50.162;8.548;2023-11-21T13:22:00;7.00;;;3.22;;
24637;SDS011;12773;50.162;8.548;2023-11-21T13:24:49;8.85;;;3.00;;
24637;SDS011;12773;50.162;8.548;2023-11-21T13:27:36;10.55;;;3.45;;
24637;SDS011;12773;50.162;8.548;2023-11-21T13:30:24;6.97;;;3.02;;
24637;SDS011;12773;50.162;8.548;2023-11-21T13:33:16;9.68;;;2.98;;
24637;SDS011;12773;50.162;8.548;2023-11-21T13:36:05;8.80;;;3.20;;
24637;SDS011;12773;50.162;8.548;2023-11-21T13:38:57;12.00;;;3.77;;
24637;SDS011;12773;50.162;8.548;2023-11-21T13:41:45;7.22;;;2.85;;
24637;SDS011;12773;50.162;8.548;2023-11-21T13:44:34;7.20;;;2.98;;
24637;SDS011;12773;50.162;8.548;2023-11-21T13:47:23;7.33;;;3.08;;
24637;SDS011;12773;50.162;8.548;2023-11-21T13:50:15;9.78;;;3.70;;
24637;SDS011;12773;50.162;8.548;2023-11-21T13:53:04;7.25;;;3.47;;
24637;SDS011;12773;50.162;8.548;2023-11-21T13:55:54;7.55;;;3.17;;
24637;SDS011;12773;50.162;8.548;2023-11-21T13:58:43;11.65;;;3.42;;
24637;SDS011;12773;50.162;8.548;2023-11-21T14:01:32;7.70;;;2.92;;
24637;SDS011;12773;50.162;8.548;2023-11-21T14:04:24;11.48;;;3.52;;
24637;SDS011;12773;50.162;8.548;2023-11-21T14:07:20;8.30;;;3.55;;
24637;SDS011;12773;50.162;8.548;2023-11-21T14:10:14;7.97;;;3.20;;
24637;SDS011;12773;50.162;8.548;2023-11-21T14:13:03;10.28;;;3.37;;
24637;SDS011;12773;50.162;8.548;2023-11-21T14:15:51;9.60;;;3.35;;
24637;SDS011;12773;50.162;8.548;2023-11-21T14:18:40;14.28;;;4.00;;
24637;SDS011;12773;50.162;8.548;2023-11-21T14:21:29;5.42;;;3.08;;
24637;SDS011;12773;50.162;8.548;2023-11-21T14:24:17;11.63;;;3.75;;
24637;SDS011;12773;50.162;8.548;2023-11-21T14:27:06;11.00;;;3.65;;
24637;SDS011;12773;50.162;8.548;2023-11-21T14:29:55;6.20;;;3.60;;
24637;SDS011;12773;50.162;8.548;2023-11-21T14:32:44;10.93;;;3.85;;
24637;SDS011;12773;50.162;8.548;2023-11-21T14:35:31;9.05;;;4.00;;
24637;SDS011;12773;50.162;8.548;2023-11-21T14:38:20;7.58;;;4.03;;
24637;SDS011;12773;50.162;8.548;2023-11-21T14:41:08;9.20;;;4.17;;
24637;SDS011;12773;50.162;8.548;2023-11-21T14:43:57;8.30;;;4.00;;
24637;SDS011;12773;50.162;8.548;2023-11-21T14:46:45;8.53;;;3.72;;
24637;SDS011;12773;50.162;8.548;2023-11-21T14:49:33;10.05;;;3.27;;
24637;SDS011;12773;50.162;8.548;2023-11-21T14:52:22;10.05;;;3.98;;
24637;SDS011;12773;50.162;8.548;2023-11-21T14:55:21;8.70;;;3.67;;
24637;SDS011;12773;50.162;8.548;2023-11-21T14:58:13;8.33;;;3.37;;
24637;SDS011;12773;50.162;8.548;2023-11-21T15:01:02;9.88;;;3.87;;
24637;SDS011;12773;50.162;8.548;2023-11-21T15:03:51;11.73;;;4.08;;
24637;SDS011;12773;50.162;8.548;2023-11-21T15:06:40;12.00;;;3.12;;
24637;SDS011;12773;50.162;8.548;2023-11-21T15:09:28;7.83;;;3.85;;
24637;SDS011;12773;50.162;8.548;2023-11-21T15:12:20;7.80;;;3.22;;
24637;SDS011;12773;50.162;8.548;2023-11-21T15:15:09;8.50;;;3.62;;
24637;SDS011;12773;50.162;8.548;2023-11-21T15:17:57;10.53;;;3.60;;
24637;SDS011;12773;50.162;8.548;2023-11-21T15:20:45;6.50;;;3.00;;
24637;SDS011;12773;50.162;8.548;2023-11-21T15:23:32;7.87;;;3.87;;
24637;SDS011;12773;50.162;8.548;2023-11-21T15:26:20;11.45;;;4.00;;
24637;SDS011;12773;50.162;8.548;2023-11-21T15:29:07;9.15;;;3.65;;
24637;SDS011;12773;50.162;8.548;2023-11-21T15:31:56;8.43;;;4.22;;
24637;SDS011;12773;50.162;8.548;2023-11-21T15:34:44;9.98;;;3.92;;
24637;SDS011;12773;50.162;8.548;2023-11-21T15:37:32;7.25;;;3.60;;
24637;SDS011;12773;50.162;8.548;2023-11-21T15:40:20;7.67;;;4.00;;
24637;SDS011;12773;50.162;8.548;2023-11-21T15:43:07;8.93;;;4.08;;
24637;SDS011;12773;50.162;8.548;2023-11-21T15:45:54;10.98;;;3.55;;
24637;SDS011;12773;50.162;8.548;2023-11-21T15:48:42;9.58;;;4.15;;
24637;SDS011;12773;50.162;8.548;2023-11-21T15:51:31;8.48;;;3.80;;
24637;SDS011;12773;50.162;8.548;2023-11-21T15:54:20;10.88;;;4.35;;
24637;SDS011;12773;50.162;8.548;2023-11-21T15:57:08;15.13;;;5.00;;
24637;SDS011;12773;50.162;8.548;2023-11-21T15:59:56;9.88;;;4.42;;
24637;SDS011;12773;50.162;8.548;2023-11-21T16:02:44;11.28;;;4.70;;
24637;SDS011;12773;50.162;8.548;2023-11-21T16:05:31;11.75;;;4.83;;
24637;SDS011;12773;50.162;8.548;2023-11-21T16:08:18;13.15;;;4.05;;
24637;SDS011;12773;50.162;8.548;2023-11-21T16:11:06;6.67;;;3.87;;
24637;SDS011;12773;50.162;8.548;2023-11-21T16:13:55;11.38;;;4.12;;
24637;SDS011;12773;50.162;8.548;2023-11-21T16:16:42;11.68;;;4.10;;
24637;SDS011;12773;50.162;8.548;2023-11-21T16:19:30;9.08;;;4.25;;
24637;SDS011;12773;50.162;8.548;2023-11-21T16:22:17;7.92;;;3.65;;
24637;SDS011;12773;50.162;8.548;2023-11-21T16:25:05;9.05;;;4.20;;
24637;SDS011;12773;50.162;8.548;2023-11-21T16:27:55;9.73;;;3.75;;
24637;SDS011;12773;50.162;8.548;2023-11-21T16:30:47;7.78;;;3.92;;
24637;SDS011;12773;50.162;8.548;2023-11-21T16:33:36;7.75;;;3.72;;
24637;SDS011;12773;50.162;8.548;2023-11-21T16:36:24;11.68;;;4.55;;
24637;SDS011;12773;50.162;8.548;2023-11-21T16:39:12;11.28;;;4.20;;
24637;SDS011;12773;50.162;8.548;2023-11-21T16:42:00;12.47;;;4.08;;
24637;SDS011;12773;50.162;8.548;2023-11-21T16:44:52;9.25;;;4.67;;
24637;SDS011;12773;50.162;8.548;2023-11-21T16:47:38;11.08;;;4.37;;
24637;SDS011;12773;50.162;8.548;2023-11-21T16:50:31;9.63;;;4.55;;
24637;SDS011;12773;50.162;8.548;2023-11-21T16:53:18;13.05;;;5.37;;
24637;SDS011;12773;50.162;8.548;2023-11-21T16:56:06;12.05;;;4.87;;